sensor_id;sensor_type;location;lat;lon;timestamp;pressure;altitude;pressure_sealevel;temperature;humidity
31761;BME280;18335;51.486;7.562;2022-12-11T00:00:36;99703.00;;;0.58;100.00
31761;BME280;18335;51.486;7.562;2022-12-11T00:03:05;99709.28;;;0.46;100.00
31761;BME280;18335;51.486;7.562;2022-12-11T00:05:31;99696.44;;;0.62;100.00
31761;BME280;18335;51.486;7.562;2022-12-11T00:07:59;99695.66;;;0.60;100.00
31761;BME280;18335;51.486;7.562;2022-12-11T00:10:26;99697.06;;;0.42;100.00
31761;BME280;18335;51.486;7.562;2022-12-11T00:12:52;99692.88;;;0.27;100.00
31761;BME280;18335;51.486;7.562;2022-12-11T00:15:19;99696.72;;;0.46;100.00
31761;BME280;18335;51.486;7.562;2022-12-11T00:17:46;99693.88;;;0.37;100.00
31761;BME280;18335;51.486;7.562;2022-12-11T00:20:14;99696.91;;;0.56;100.00
31761;BME280;18335;51.486;7.562;2022-12-11T00:22:41;99700.38;;;0.22;100.00
31761;BME280;18335;51.486;7.562;2022-12-11T00:25:08;99702.03;;;0.12;100.00
31761;BME280;18335;51.486;7.562;2022-12-11T00:27:35;99703.88;;;0.11;100.00
31761;BME280;18335;51.486;7.562;2022-12-11T00:30:02;99694.53;;;0.04;100.00
31761;BME280;18335;51.486;7.562;2022-12-11T00:32:29;99694.53;;;0.04;100.00
31761;BME280;18335;51.486;7.562;2022-12-11T00:34:56;99697.97;;;0.06;100.00
31761;BME280;18335;51.486;7.562;2022-12-11T00:37:24;99700.81;;;0.16;100.00
31761;BME280;18335;51.486;7.562;2022-12-11T00:39:51;99700.81;;;0.16;100.00
31761;BME280;18335;51.486;7.562;2022-12-11T00:42:18;99699.63;;;-0.04;100.00
31761;BME280;18335;51.486;7.562;2022-12-11T00:44:45;99704.19;;;0.07;100.00
31761;BME280;18335;51.486;7.562;2022-12-11T00:47:11;99705.00;;;-0.04;100.00
31761;BME280;18335;51.486;7.562;2022-12-11T00:49:38;99699.88;;;-0.20;100.00
31761;BME280;18335;51.486;7.562;2022-12-11T00:52:05;99700.06;;;-0.10;100.00
31761;BME280;18335;51.486;7.562;2022-12-11T00:54:34;99702.72;;;0.03;100.00
31761;BME280;18335;51.486;7.562;2022-12-11T00:57:00;99707.09;;;0.04;100.00
31761;BME280;18335;51.486;7.562;2022-12-11T00:59:27;99702.94;;;-0.01;100.00
31761;BME280;18335;51.486;7.562;2022-12-11T01:01:54;99700.78;;;0.05;100.00
31761;BME280;18335;51.486;7.562;2022-12-11T01:04:20;99704.25;;;-0.06;100.00
31761;BME280;18335;51.486;7.562;2022-12-11T01:06:48;99699.66;;;-0.17;100.00
31761;BME280;18335;51.486;7.562;2022-12-11T01:09:14;99700.72;;;-0.07;100.00
31761;BME280;18335;51.486;7.562;2022-12-11T01:12:00;99697.41;;;-0.23;100.00
31761;BME280;18335;51.486;7.562;2022-12-11T01:14:27;99705.31;;;-0.09;100.00
31761;BME280;18335;51.486;7.562;2022-12-11T01:16:53;99696.91;;;-0.28;100.00
31761;BME280;18335;51.486;7.562;2022-12-11T01:19:20;99699.59;;;-0.40;100.00
31761;BME280;18335;51.486;7.562;2022-12-11T01:21:47;99698.38;;;-0.24;100.00
31761;BME280;18335;51.486;7.562;2022-12-11T01:24:13;99702.84;;;-0.12;100.00
31761;BME280;18335;51.486;7.562;2022-12-11T01:26:40;99699.63;;;-0.04;100.00
31761;BME280;18335;51.486;7.562;2022-12-11T01:29:08;99702.72;;;0.03;100.00
31761;BME280;18335;51.486;7.562;2022-12-11T01:31:35;99705.31;;;-0.09;100.00
31761;BME280;18335;51.486;7.562;2022-12-11T01:34:02;99699.13;;;-0.09;100.00
31761;BME280;18335;51.486;7.562;2022-12-11T01:36:29;99696.38;;;0.04;100.00
31761;BME280;18335;51.486;7.562;2022-12-11T01:38:55;99703.03;;;-0.02;100.00
31761;BME280;18335;51.486;7.562;2022-12-11T01:41:22;99703.22;;;0.08;100.00
31761;BME280;18335;51.486;7.562;2022-12-11T01:43:56;99698.75;;;-0.05;100.00
31761;BME280;18335;51.486;7.562;2022-12-11T01:46:25;99695.13;;;-0.04;100.00
31761;BME280;18335;51.486;7.562;2022-12-11T01:48:53;99696.22;;;-0.06;100.00
31761;BME280;18335;51.486;7.562;2022-12-11T01:51:21;99705.31;;;-0.09;100.00
31761;BME280;18335;51.486;7.562;2022-12-11T01:53:51;99700.72;;;-0.07;100.00
31761;BME280;18335;51.486;7.562;2022-12-11T01:56:18;99701.84;;;0.02;100.00
31761;BME280;18335;51.486;7.562;2022-12-11T01:58:49;99706.53;;;-0.13;100.00
31761;BME280;18335;51.486;7.562;2022-12-11T02:01:21;99702.94;;;-0.01;100.00
31761;BME280;18335;51.486;7.562;2022-12-11T02:03:51;99703.81;;;0.00;100.00
31761;BME280;18335;51.486;7.562;2022-12-11T02:06:31;99705.66;;;-0.13;100.00
31761;BME280;18335;51.486;7.562;2022-12-11T02:08:59;99707.53;;;-0.03;100.00
31761;BME280;18335;51.486;7.562;2022-12-11T02:11:31;99703.88;;;0.11;100.00
31761;BME280;18335;51.486;7.562;2022-12-11T02:14:04;99698.03;;;-0.07;100.00
31761;BME280;18335;51.486;7.562;2022-12-11T02:16:37;99695.47;;;0.16;100.00
31761;BME280;18335;51.486;7.562;2022-12-11T02:19:18;99690.25;;;-0.22;100.00
31761;BME280;18335;51.486;7.562;2022-12-11T02:21:50;99688.91;;;-0.04;100.00
31761;BME280;18335;51.486;7.562;2022-12-11T02:24:29;99691.53;;;-0.28;100.00
31761;BME280;18335;51.486;7.562;2022-12-11T02:27:10;99689.81;;;0.08;100.00
31761;BME280;18335;51.486;7.562;2022-12-11T02:29:44;99684.06;;;-0.12;100.00
31761;BME280;18335;51.486;7.562;2022-12-11T02:32:15;99684.78;;;0.03;100.00
31761;BME280;18335;51.486;7.562;2022-12-11T02:34:49;99687.38;;;0.05;100.00
31761;BME280;18335;51.486;7.562;2022-12-11T02:37:22;99681.94;;;0.17;100.00
31761;BME280;18335;51.486;7.562;2022-12-11T02:39:51;99684.81;;;0.27;100.00
31761;BME280;18335;51.486;7.562;2022-12-11T02:42:20;99687.94;;;0.21;100.00
31761;BME280;18335;51.486;7.562;2022-12-11T02:44:50;99685.38;;;0.19;100.00
31761;BME280;18335;51.486;7.562;2022-12-11T02:47:20;99683.03;;;0.38;100.00
31761;BME280;18335;51.486;7.562;2022-12-11T02:49:48;99685.34;;;0.43;100.00
31761;BME280;18335;51.486;7.562;2022-12-11T02:52:17;99684.72;;;0.39;100.00
31761;BME280;18335;51.486;7.562;2022-12-11T02:54:46;99680.81;;;0.09;100.00
31761;BME280;18335;51.486;7.562;2022-12-11T02:57:15;99687.13;;;0.08;100.00
31761;BME280;18335;51.486;7.562;2022-12-11T02:59:44;99681.13;;;0.28;100.00
31761;BME280;18335;51.486;7.562;2022-12-11T03:02:12;99676.75;;;0.27;100.00
31761;BME280;18335;51.486;7.562;2022-12-11T03:04:41;99672.22;;;0.27;100.00
31761;BME280;18335;51.486;7.562;2022-12-11T03:07:11;99662.66;;;0.36;100.00
31761;BME280;18335;51.486;7.562;2022-12-11T03:09:42;99671.63;;;0.24;100.00
31761;BME280;18335;51.486;7.562;2022-12-11T03:12:11;99668.41;;;0.19;100.00
31761;BME280;18335;51.486;7.562;2022-12-11T03:14:40;99664.09;;;0.29;100.00
31761;BME280;18335;51.486;7.562;2022-12-11T03:17:11;99659.47;;;0.42;100.00
31761;BME280;18335;51.486;7.562;2022-12-11T03:19:47;99668.06;;;0.47;100.00
31761;BME280;18335;51.486;7.562;2022-12-11T03:22:18;99666.97;;;0.49;100.00
31761;BME280;18335;51.486;7.562;2022-12-11T03:24:50;99668.53;;;0.41;100.00
31761;BME280;18335;51.486;7.562;2022-12-11T03:27:19;99672.06;;;0.41;100.00
31761;BME280;18335;51.486;7.562;2022-12-11T03:29:55;99667.44;;;0.20;100.00
31761;BME280;18335;51.486;7.562;2022-12-11T03:32:26;99660.94;;;0.35;100.00
31761;BME280;18335;51.486;7.562;2022-12-11T03:34:59;99666.41;;;0.33;100.00
31761;BME280;18335;51.486;7.562;2022-12-11T03:37:33;99658.25;;;0.35;100.00
31761;BME280;18335;51.486;7.562;2022-12-11T03:40:03;99658.03;;;0.38;100.00
31761;BME280;18335;51.486;7.562;2022-12-11T03:42:34;99662.31;;;0.17;100.00
31761;BME280;18335;51.486;7.562;2022-12-11T03:45:02;99658.28;;;0.46;100.00
31761;BME280;18335;51.486;7.562;2022-12-11T03:47:31;99656.63;;;0.56;100.00
31761;BME280;18335;51.486;7.562;2022-12-11T03:50:01;99655.16;;;0.63;100.00
31761;BME280;18335;51.486;7.562;2022-12-11T03:52:30;99654.09;;;0.66;100.00
31761;BME280;18335;51.486;7.562;2022-12-11T03:55:00;99659.09;;;0.59;100.00
31761;BME280;18335;51.486;7.562;2022-12-11T03:57:31;99652.16;;;0.68;100.00
31761;BME280;18335;51.486;7.562;2022-12-11T03:59:59;99650.28;;;0.57;100.00
31761;BME280;18335;51.486;7.562;2022-12-11T04:02:37;99656.78;;;0.66;100.00
31761;BME280;18335;51.486;7.562;2022-12-11T04:05:07;99651.13;;;0.23;100.00
31761;BME280;18335;51.486;7.562;2022-12-11T04:07:34;99655.38;;;0.49;100.00
31761;BME280;18335;51.486;7.562;2022-12-11T04:10:01;99648.69;;;0.54;100.00
31761;BME280;18335;51.486;7.562;2022-12-11T04:12:27;99660.97;;;0.46;100.00
31761;BME280;18335;51.486;7.562;2022-12-11T04:14:54;99653.41;;;0.51;100.00
31761;BME280;18335;51.486;7.562;2022-12-11T04:17:32;99656.63;;;0.56;100.00
31761;BME280;18335;51.486;7.562;2022-12-11T04:20:19;99662.41;;;0.39;100.00
31761;BME280;18335;51.486;7.562;2022-12-11T04:23:04;99663.81;;;0.55;100.00
31761;BME280;18335;51.486;7.562;2022-12-11T04:25:48;99662.47;;;0.50;100.00
31761;BME280;18335;51.486;7.562;2022-12-11T04:28:14;99661.59;;;0.49;100.00
31761;BME280;18335;51.486;7.562;2022-12-11T04:30:46;99659.59;;;0.06;100.00
31761;BME280;18335;51.486;7.562;2022-12-11T04:33:13;99662.03;;;0.32;100.00
31761;BME280;18335;51.486;7.562;2022-12-11T04:35:41;99661.09;;;0.44;100.00
31761;BME280;18335;51.486;7.562;2022-12-11T04:38:08;99668.16;;;0.45;100.00
31761;BME280;18335;51.486;7.562;2022-12-11T04:40:35;99663.84;;;0.32;100.00
31761;BME280;18335;51.486;7.562;2022-12-11T04:43:02;99658.75;;;0.40;100.00
31761;BME280;18335;51.486;7.562;2022-12-11T04:45:29;99656.81;;;0.18;100.00
31761;BME280;18335;51.486;7.562;2022-12-11T04:47:55;99655.22;;;0.16;100.00
31761;BME280;18335;51.486;7.562;2022-12-11T04:50:22;99652.91;;;0.11;100.00
31761;BME280;18335;51.486;7.562;2022-12-11T04:52:53;99647.72;;;0.21;100.00
31761;BME280;18335;51.486;7.562;2022-12-11T04:55:20;99653.19;;;-0.05;100.00
31761;BME280;18335;51.486;7.562;2022-12-11T04:57:47;99650.94;;;-0.11;100.00
31761;BME280;18335;51.486;7.562;2022-12-11T05:00:14;99654.31;;;0.04;100.00
31761;BME280;18335;51.486;7.562;2022-12-11T05:02:41;99655.13;;;-0.07;100.00
31761;BME280;18335;51.486;7.562;2022-12-11T05:05:09;99652.00;;;-0.01;100.00
31761;BME280;18335;51.486;7.562;2022-12-11T05:07:36;99647.13;;;0.05;100.00
31761;BME280;18335;51.486;7.562;2022-12-11T05:10:06;99653.84;;;0.34;100.00
31761;BME280;18335;51.486;7.562;2022-12-11T05:12:33;99649.25;;;0.36;100.00
31761;BME280;18335;51.486;7.562;2022-12-11T05:14:59;99651.81;;;0.48;100.00
31761;BME280;18335;51.486;7.562;2022-12-11T05:17:26;99648.97;;;0.39;100.00
31761;BME280;18335;51.486;7.562;2022-12-11T05:19:53;99662.31;;;0.40;100.00
31761;BME280;18335;51.486;7.562;2022-12-11T05:22:20;99652.53;;;0.39;100.00
31761;BME280;18335;51.486;7.562;2022-12-11T05:24:47;99656.25;;;0.49;100.00
31761;BME280;18335;51.486;7.562;2022-12-11T05:27:15;99656.09;;;0.51;100.00
31761;BME280;18335;51.486;7.562;2022-12-11T05:29:41;99654.19;;;0.53;100.00
31761;BME280;18335;51.486;7.562;2022-12-11T05:32:08;99656.00;;;0.52;100.00
31761;BME280;18335;51.486;7.562;2022-12-11T05:34:35;99650.47;;;0.43;100.00
31761;BME280;18335;51.486;7.562;2022-12-11T05:37:02;99646.50;;;0.25;100.00
31761;BME280;18335;51.486;7.562;2022-12-11T05:39:29;99653.34;;;0.29;100.00
31761;BME280;18335;51.486;7.562;2022-12-11T05:41:55;99654.53;;;0.25;100.00
31761;BME280;18335;51.486;7.562;2022-12-11T05:44:23;99654.28;;;0.51;100.00
31761;BME280;18335;51.486;7.562;2022-12-11T05:46:50;99642.22;;;0.57;100.00
31761;BME280;18335;51.486;7.562;2022-12-11T05:49:17;99646.63;;;0.58;100.00
31761;BME280;18335;51.486;7.562;2022-12-11T05:51:44;99642.13;;;0.70;100.00
31761;BME280;18335;51.486;7.562;2022-12-11T05:54:10;99637.88;;;0.67;100.00
31761;BME280;18335;51.486;7.562;2022-12-11T05:56:37;99636.03;;;0.68;100.00
31761;BME280;18335;51.486;7.562;2022-12-11T05:59:04;99632.41;;;0.80;100.00
31761;BME280;18335;51.486;7.562;2022-12-11T06:01:34;99639.59;;;0.68;100.00
31761;BME280;18335;51.486;7.562;2022-12-11T06:04:02;99636.16;;;0.66;100.00
31761;BME280;18335;51.486;7.562;2022-12-11T06:06:30;99636.84;;;0.57;100.00
31761;BME280;18335;51.486;7.562;2022-12-11T06:08:58;99643.69;;;0.50;100.00
31761;BME280;18335;51.486;7.562;2022-12-11T06:11:26;99643.72;;;0.61;100.00
31761;BME280;18335;51.486;7.562;2022-12-11T06:13:54;99638.22;;;0.63;100.00
31761;BME280;18335;51.486;7.562;2022-12-11T06:16:21;99637.00;;;0.67;100.00
31761;BME280;18335;51.486;7.562;2022-12-11T06:18:49;99626.88;;;0.70;100.00
31761;BME280;18335;51.486;7.562;2022-12-11T06:21:19;99636.16;;;0.66;100.00
31761;BME280;18335;51.486;7.562;2022-12-11T06:23:47;99625.16;;;0.69;100.00
31761;BME280;18335;51.486;7.562;2022-12-11T06:26:15;99621.66;;;0.80;100.00
31761;BME280;18335;51.486;7.562;2022-12-11T06:28:42;99624.22;;;0.81;100.00
31761;BME280;18335;51.486;7.562;2022-12-11T06:31:09;99619.47;;;0.74;100.00
31761;BME280;18335;51.486;7.562;2022-12-11T06:33:36;99617.97;;;0.70;100.00
31761;BME280;18335;51.486;7.562;2022-12-11T06:36:05;99625.03;;;0.60;100.00
31761;BME280;18335;51.486;7.562;2022-12-11T06:38:32;99626.03;;;0.81;100.00
31761;BME280;18335;51.486;7.562;2022-12-11T06:41:00;99623.75;;;0.87;100.00
31761;BME280;18335;51.486;7.562;2022-12-11T06:43:29;99624.25;;;0.92;100.00
31761;BME280;18335;51.486;7.562;2022-12-11T06:45:56;99626.56;;;0.86;100.00
31761;BME280;18335;51.486;7.562;2022-12-11T06:48:23;99634.47;;;0.87;100.00
31761;BME280;18335;51.486;7.562;2022-12-11T06:50:50;99630.31;;;0.72;100.00
31761;BME280;18335;51.486;7.562;2022-12-11T06:53:18;99633.13;;;0.71;100.00
31761;BME280;18335;51.486;7.562;2022-12-11T06:55:45;99619.94;;;0.79;100.00
31761;BME280;18335;51.486;7.562;2022-12-11T06:58:12;99626.41;;;0.76;100.00
31761;BME280;18335;51.486;7.562;2022-12-11T07:00:38;99626.25;;;0.67;100.00
31761;BME280;18335;51.486;7.562;2022-12-11T07:03:05;99636.50;;;0.62;100.00
31761;BME280;18335;51.486;7.562;2022-12-11T07:05:32;99633.59;;;0.65;100.00
31761;BME280;18335;51.486;7.562;2022-12-11T07:07:59;99631.88;;;0.75;100.00
31761;BME280;18335;51.486;7.562;2022-12-11T07:10:27;99630.31;;;0.72;100.00
31761;BME280;18335;51.486;7.562;2022-12-11T07:12:54;99628.47;;;0.73;100.00
31761;BME280;18335;51.486;7.562;2022-12-11T07:15:21;99622.25;;;0.72;100.00
31761;BME280;18335;51.486;7.562;2022-12-11T07:17:47;99633.38;;;0.79;100.00
31761;BME280;18335;51.486;7.562;2022-12-11T07:20:14;99638.13;;;0.75;100.00
31761;BME280;18335;51.486;7.562;2022-12-11T07:22:41;99635.97;;;0.80;100.00
31761;BME280;18335;51.486;7.562;2022-12-11T07:25:08;99639.13;;;0.85;100.00
31761;BME280;18335;51.486;7.562;2022-12-11T07:27:36;99635.09;;;0.80;100.00
31761;BME280;18335;51.486;7.562;2022-12-11T07:30:04;99634.34;;;0.78;100.00
31761;BME280;18335;51.486;7.562;2022-12-11T07:32:30;99638.34;;;0.72;100.00
31761;BME280;18335;51.486;7.562;2022-12-11T07:34:57;99628.63;;;0.71;100.00
31761;BME280;18335;51.486;7.562;2022-12-11T07:37:24;99639.38;;;0.93;100.00
31761;BME280;18335;51.486;7.562;2022-12-11T07:39:50;99636.19;;;0.77;100.00
31761;BME280;18335;51.486;7.562;2022-12-11T07:42:17;99639.38;;;0.93;100.00
31761;BME280;18335;51.486;7.562;2022-12-11T07:44:45;99637.69;;;0.92;100.00
31761;BME280;18335;51.486;7.562;2022-12-11T07:47:12;99627.06;;;0.91;100.00
31761;BME280;18335;51.486;7.562;2022-12-11T07:49:39;99635.66;;;0.61;100.00
31761;BME280;18335;51.486;7.562;2022-12-11T07:52:05;99633.03;;;0.83;100.00
31761;BME280;18335;51.486;7.562;2022-12-11T07:54:32;99632.91;;;0.96;100.00
31761;BME280;18335;51.486;7.562;2022-12-11T07:56:59;99636.44;;;0.85;100.00
31761;BME280;18335;51.486;7.562;2022-12-11T07:59:25;99639.38;;;0.93;100.00
31761;BME280;18335;51.486;7.562;2022-12-11T08:01:53;99637.44;;;0.95;100.00
31761;BME280;18335;51.486;7.562;2022-12-11T08:04:20;99634.25;;;0.90;100.00
31761;BME280;18335;51.486;7.562;2022-12-11T08:06:47;99646.56;;;0.93;100.00
31761;BME280;18335;51.486;7.562;2022-12-11T08:09:13;99642.59;;;0.98;100.00
31761;BME280;18335;51.486;7.562;2022-12-11T08:11:40;99646.94;;;0.88;100.00
31761;BME280;18335;51.486;7.562;2022-12-11T08:14:07;99645.38;;;0.86;100.00
31761;BME280;18335;51.486;7.562;2022-12-11T08:16:34;99647.97;;;0.98;100.00
31761;BME280;18335;51.486;7.562;2022-12-11T08:19:02;99643.66;;;0.96;100.00
31761;BME280;18335;51.486;7.562;2022-12-11T08:21:29;99649.22;;;0.71;100.00
31761;BME280;18335;51.486;7.562;2022-12-11T08:23:55;99656.09;;;0.51;100.00
31761;BME280;18335;51.486;7.562;2022-12-11T08:26:24;99651.78;;;0.72;100.00
31761;BME280;18335;51.486;7.562;2022-12-11T08:28:51;99650.84;;;0.84;100.00
31761;BME280;18335;51.486;7.562;2022-12-11T08:31:19;99654.53;;;0.94;100.00
31761;BME280;18335;51.486;7.562;2022-12-11T08:33:46;99655.50;;;0.93;100.00
31761;BME280;18335;51.486;7.562;2022-12-11T08:36:17;99656.50;;;1.03;100.00
31761;BME280;18335;51.486;7.562;2022-12-11T08:38:44;99645.28;;;1.09;100.00
31761;BME280;18335;51.486;7.562;2022-12-11T08:41:13;99653.09;;;1.01;100.00
31761;BME280;18335;51.486;7.562;2022-12-11T08:43:41;99645.75;;;1.03;100.00
31761;BME280;18335;51.486;7.562;2022-12-11T08:46:08;99644.28;;;0.99;100.00
31761;BME280;18335;51.486;7.562;2022-12-11T08:48:37;99653.81;;;1.03;100.00
31761;BME280;18335;51.486;7.562;2022-12-11T08:51:06;99650.75;;;0.97;100.00
31761;BME280;18335;51.486;7.562;2022-12-11T08:53:34;99654.63;;;0.93;100.00
31761;BME280;18335;51.486;7.562;2022-12-11T08:56:01;99651.38;;;1.00;100.00
31761;BME280;18335;51.486;7.562;2022-12-11T08:58:28;99655.78;;;1.01;100.00
31761;BME280;18335;51.486;7.562;2022-12-11T09:00:55;99645.28;;;1.09;100.00
31761;BME280;18335;51.486;7.562;2022-12-11T09:03:23;99650.41;;;1.13;100.00
31761;BME280;18335;51.486;7.562;2022-12-11T09:05:49;99645.50;;;1.18;100.00
31761;BME280;18335;51.486;7.562;2022-12-11T09:08:16;99647.00;;;1.10;100.00
31761;BME280;18335;51.486;7.562;2022-12-11T09:10:44;99646.72;;;1.13;100.00
31761;BME280;18335;51.486;7.562;2022-12-11T09:13:11;99648.28;;;0.94;100.00
31761;BME280;18335;51.486;7.562;2022-12-11T09:15:39;99650.63;;;0.98;100.00
31761;BME280;18335;51.486;7.562;2022-12-11T09:18:07;99649.88;;;0.85;100.00
31761;BME280;18335;51.486;7.562;2022-12-11T09:20:33;99645.50;;;0.95;100.00
31761;BME280;18335;51.486;7.562;2022-12-11T09:23:00;99642.53;;;0.76;100.00
31761;BME280;18335;51.486;7.562;2022-12-11T09:25:27;99657.94;;;0.85;100.00
31761;BME280;18335;51.486;7.562;2022-12-11T09:27:55;99651.59;;;0.97;100.00
31761;BME280;18335;51.486;7.562;2022-12-11T09:30:22;99654.53;;;1.05;100.00
31761;BME280;18335;51.486;7.562;2022-12-11T09:32:49;99654.78;;;1.02;100.00
31761;BME280;18335;51.486;7.562;2022-12-11T09:35:15;99659.66;;;1.08;100.00
31761;BME280;18335;51.486;7.562;2022-12-11T09:37:42;99655.78;;;1.13;100.00
31761;BME280;18335;51.486;7.562;2022-12-11T09:40:10;99650.03;;;1.06;100.00
31761;BME280;18335;51.486;7.562;2022-12-11T09:42:45;99659.66;;;0.86;100.00
31761;BME280;18335;51.486;7.562;2022-12-11T09:45:17;99647.34;;;0.95;100.00
31761;BME280;18335;51.486;7.562;2022-12-11T09:47:46;99645.75;;;0.92;100.00
31761;BME280;18335;51.486;7.562;2022-12-11T09:50:17;99649.03;;;0.96;100.00
31761;BME280;18335;51.486;7.562;2022-12-11T09:52:54;99644.50;;;0.96;100.00
31761;BME280;18335;51.486;7.562;2022-12-11T09:55:24;99639.41;;;1.04;100.00
31761;BME280;18335;51.486;7.562;2022-12-11T09:57:58;99648.19;;;1.06;100.00
31761;BME280;18335;51.486;7.562;2022-12-11T10:00:32;99650.66;;;1.09;100.00
31761;BME280;18335;51.486;7.562;2022-12-11T10:03:21;99639.75;;;1.11;100.00
31761;BME280;18335;51.486;7.562;2022-12-11T10:05:54;99637.47;;;1.18;100.00
31761;BME280;18335;51.486;7.562;2022-12-11T10:08:30;99632.47;;;1.24;100.00
31761;BME280;18335;51.486;7.562;2022-12-11T10:11:04;99628.28;;;1.09;100.00
31761;BME280;18335;51.486;7.562;2022-12-11T10:13:46;99619.63;;;1.17;100.00
31761;BME280;18335;51.486;7.562;2022-12-11T10:16:26;99621.94;;;1.21;100.00
31761;BME280;18335;51.486;7.562;2022-12-11T10:18:58;99622.31;;;1.28;100.00
31761;BME280;18335;51.486;7.562;2022-12-11T10:21:25;99633.69;;;1.31;100.00
31761;BME280;18335;51.486;7.562;2022-12-11T10:23:57;99626.22;;;1.24;100.00
31761;BME280;18335;51.486;7.562;2022-12-11T10:26:26;99620.13;;;1.33;100.00
31761;BME280;18335;51.486;7.562;2022-12-11T10:28:57;99623.53;;;1.35;100.00
31761;BME280;18335;51.486;7.562;2022-12-11T10:31:30;99624.63;;;1.21;100.00
31761;BME280;18335;51.486;7.562;2022-12-11T10:34:08;99620.97;;;1.33;100.00
31761;BME280;18335;51.486;7.562;2022-12-11T10:36:38;99622.81;;;1.33;100.00
31761;BME280;18335;51.486;7.562;2022-12-11T10:39:11;99611.78;;;1.47;100.00
31761;BME280;18335;51.486;7.562;2022-12-11T10:41:41;99615.72;;;1.54;100.00
31761;BME280;18335;51.486;7.562;2022-12-11T10:44:14;99614.00;;;1.42;100.00
31761;BME280;18335;51.486;7.562;2022-12-11T10:46:44;99616.91;;;1.50;100.00
31761;BME280;18335;51.486;7.562;2022-12-11T10:49:23;99621.34;;;1.51;100.00
31761;BME280;18335;51.486;7.562;2022-12-11T10:51:51;99611.78;;;1.47;100.00
31761;BME280;18335;51.486;7.562;2022-12-11T10:54:30;99603.63;;;1.37;100.00
31761;BME280;18335;51.486;7.562;2022-12-11T10:56:59;99613.25;;;1.51;100.00
31761;BME280;18335;51.486;7.562;2022-12-11T10:59:32;99607.16;;;1.49;100.00
31761;BME280;18335;51.486;7.562;2022-12-11T11:02:03;99608.88;;;1.39;100.00
31761;BME280;18335;51.486;7.562;2022-12-11T11:04:32;99614.00;;;1.42;100.00
31761;BME280;18335;51.486;7.562;2022-12-11T11:07:03;99605.22;;;1.40;100.00
31761;BME280;18335;51.486;7.562;2022-12-11T11:09:32;99603.63;;;1.37;100.00
31761;BME280;18335;51.486;7.562;2022-12-11T11:11:59;99595.34;;;1.40;100.00
31761;BME280;18335;51.486;7.562;2022-12-11T11:14:27;99589.94;;;1.40;100.00
31761;BME280;18335;51.486;7.562;2022-12-11T11:16:55;99592.03;;;1.37;100.00
31761;BME280;18335;51.486;7.562;2022-12-11T11:19:28;99591.66;;;1.41;100.00
31761;BME280;18335;51.486;7.562;2022-12-11T11:21:58;99596.81;;;1.22;100.00
31761;BME280;18335;51.486;7.562;2022-12-11T11:24:30;99599.22;;;1.36;100.00
31761;BME280;18335;51.486;7.562;2022-12-11T11:26:59;99594.22;;;1.21;100.00
31761;BME280;18335;51.486;7.562;2022-12-11T11:29:29;99597.38;;;1.26;100.00
31761;BME280;18335;51.486;7.562;2022-12-11T11:32:01;99602.50;;;1.29;100.00
31761;BME280;18335;51.486;7.562;2022-12-11T11:34:39;99590.44;;;1.34;100.00
31761;BME280;18335;51.486;7.562;2022-12-11T11:37:22;99592.38;;;1.32;100.00
31761;BME280;18335;51.486;7.562;2022-12-11T11:39:51;99596.91;;;1.32;100.00
31761;BME280;18335;51.486;7.562;2022-12-11T11:42:24;99587.63;;;1.36;100.00
31761;BME280;18335;51.486;7.562;2022-12-11T11:45:01;99587.16;;;1.31;100.00
31761;BME280;18335;51.486;7.562;2022-12-11T11:47:32;99587.28;;;1.18;100.00
31761;BME280;18335;51.486;7.562;2022-12-11T11:50:05;99580.69;;;1.22;100.00
31761;BME280;18335;51.486;7.562;2022-12-11T11:52:37;99580.69;;;1.22;100.00
31761;BME280;18335;51.486;7.562;2022-12-11T11:55:13;99582.03;;;1.28;100.00
31761;BME280;18335;51.486;7.562;2022-12-11T11:57:42;99583.94;;;1.26;100.00
31761;BME280;18335;51.486;7.562;2022-12-11T12:00:19;99582.38;;;1.12;100.00
31761;BME280;18335;51.486;7.562;2022-12-11T12:02:47;99577.97;;;1.33;100.00
31761;BME280;18335;51.486;7.562;2022-12-11T12:05:23;99581.03;;;1.29;100.00
31761;BME280;18335;51.486;7.562;2022-12-11T12:07:59;99578.34;;;1.29;100.00
31761;BME280;18335;51.486;7.562;2022-12-11T12:10:35;99574.31;;;1.34;100.00
31761;BME280;18335;51.486;7.562;2022-12-11T12:13:06;99572.47;;;1.46;100.00
31761;BME280;18335;51.486;7.562;2022-12-11T12:15:42;99568.53;;;1.50;100.00
31761;BME280;18335;51.486;7.562;2022-12-11T12:18:19;99572.81;;;1.41;100.00
31761;BME280;18335;51.486;7.562;2022-12-11T12:20:58;99571.25;;;1.39;100.00
31761;BME280;18335;51.486;7.562;2022-12-11T12:23:41;99576.38;;;1.42;100.00
31761;BME280;18335;51.486;7.562;2022-12-11T12:26:16;99560.47;;;1.50;100.00
31761;BME280;18335;51.486;7.562;2022-12-11T12:28:51;99572.47;;;1.46;100.00
31761;BME280;18335;51.486;7.562;2022-12-11T12:31:36;99571.59;;;1.45;100.00
31761;BME280;18335;51.486;7.562;2022-12-11T12:34:15;99557.19;;;1.46;100.00
31761;BME280;18335;51.486;7.562;2022-12-11T12:36:50;99559.38;;;1.41;100.00
31761;BME280;18335;51.486;7.562;2022-12-11T12:39:28;99554.50;;;1.35;100.00
31761;BME280;18335;51.486;7.562;2022-12-11T12:42:07;99556.84;;;1.40;100.00
31761;BME280;18335;51.486;7.562;2022-12-11T12:44:40;99560.25;;;1.42;100.00
31761;BME280;18335;51.486;7.562;2022-12-11T12:47:12;99562.91;;;1.53;100.00
31761;BME280;18335;51.486;7.562;2022-12-11T12:49:42;99560.47;;;1.61;100.00
31761;BME280;18335;51.486;7.562;2022-12-11T12:52:14;99553.25;;;1.50;100.00
31761;BME280;18335;51.486;7.562;2022-12-11T12:54:43;99563.78;;;1.53;100.00
31761;BME280;18335;51.486;7.562;2022-12-11T12:57:32;99556.06;;;1.60;100.00
31761;BME280;18335;51.486;7.562;2022-12-11T13:00:00;99557.78;;;1.61;100.00
31761;BME280;18335;51.486;7.562;2022-12-11T13:02:28;99552.78;;;1.45;100.00
31761;BME280;18335;51.486;7.562;2022-12-11T13:04:58;99553.66;;;1.35;100.00
31761;BME280;18335;51.486;7.562;2022-12-11T13:07:29;99557.09;;;1.37;100.00
31761;BME280;18335;51.486;7.562;2022-12-11T13:10:00;99550.47;;;1.52;100.00
31761;BME280;18335;51.486;7.562;2022-12-11T13:12:33;99548.84;;;1.60;100.00